createdAt,value
2022-12-15T00:00:09.106Z,19.67
2022-12-15T00:03:23.846Z,18.17
2022-12-15T00:06:14.988Z,20.42
2022-12-15T00:09:11.151Z,24.38
2022-12-15T00:12:05.021Z,23.95
2022-12-15T00:14:56.304Z,20.92
2022-12-15T00:17:47.386Z,20.23
2022-12-15T00:20:38.570Z,18.60
2022-12-15T00:23:30.785Z,20.38
2022-12-15T00:26:22.442Z,17.05
2022-12-15T00:29:14.618Z,18.67
2022-12-15T00:32:05.819Z,17.65
2022-12-15T00:34:56.749Z,16.70
2022-12-15T00:37:47.999Z,21.23
2022-12-15T00:40:20.529Z,17.43
2022-12-15T00:42:53.435Z,16.75
2022-12-15T00:45:45.879Z,19.63
2022-12-15T00:48:18.722Z,19.15
2022-12-15T00:50:54.099Z,18.65
2022-12-15T00:53:45.265Z,18.23
2022-12-15T00:56:36.426Z,18.85
2022-12-15T00:59:28.361Z,19.67
2022-12-15T01:02:19.168Z,21.70
2022-12-15T01:05:10.731Z,19.35
2022-12-15T01:08:01.786Z,23.00
2022-12-15T01:10:53.051Z,21.63
2022-12-15T01:13:44.110Z,22.85
2022-12-15T01:16:41.388Z,21.20
2022-12-15T01:19:32.721Z,21.25
2022-12-15T01:22:06.656Z,25.63
2022-12-15T01:24:39.274Z,19.90
2022-12-15T01:27:12.173Z,26.20
2022-12-15T01:29:44.882Z,22.60
2022-12-15T01:32:17.826Z,20.60
2022-12-15T01:34:50.391Z,21.35
2022-12-15T01:37:23.302Z,18.77
2022-12-15T01:40:14.660Z,21.52
2022-12-15T01:42:47.548Z,22.05
2022-12-15T01:45:29.335Z,22.10
2022-12-15T01:48:06.980Z,24.85
2022-12-15T01:50:44.555Z,20.25
2022-12-15T01:53:17.892Z,23.67
2022-12-15T01:55:51.122Z,20.48
2022-12-15T01:58:24.119Z,23.90
2022-12-15T02:00:57.332Z,22.15
2022-12-15T02:03:32.310Z,19.33
2022-12-15T02:06:05.379Z,21.35
2022-12-15T02:08:38.518Z,24.98
2022-12-15T02:11:14.028Z,28.83
2022-12-15T02:14:07.222Z,23.02
2022-12-15T02:16:58.339Z,25.63
2022-12-15T02:19:31.346Z,27.77
2022-12-15T02:22:18.327Z,21.60
2022-12-15T02:24:57.743Z,23.48
2022-12-15T02:27:39.427Z,21.65
2022-12-15T02:30:30.712Z,22.25
2022-12-15T02:33:24.633Z,20.17
2022-12-15T02:36:00.490Z,23.35
2022-12-15T02:38:35.395Z,19.60
2022-12-15T02:41:28.176Z,19.25
2022-12-15T02:44:01.888Z,20.67
2022-12-15T02:46:56.124Z,19.83
2022-12-15T02:49:35.796Z,17.83
2022-12-15T02:52:11.883Z,19.30
2022-12-15T02:54:54.560Z,18.63
2022-12-15T02:57:30.553Z,20.50
2022-12-15T03:00:07.365Z,15.02
2022-12-15T03:02:43.190Z,18.10
2022-12-15T03:05:16.962Z,18.00
2022-12-15T03:07:50.487Z,16.88
2022-12-15T03:10:24.797Z,18.63
2022-12-15T03:12:59.175Z,20.00
2022-12-15T03:15:35.597Z,18.02
2022-12-15T03:18:08.884Z,19.55
2022-12-15T03:20:41.429Z,20.33
2022-12-15T03:23:14.291Z,15.95
2022-12-15T03:25:49.967Z,15.90
2022-12-15T03:28:23.325Z,14.80
2022-12-15T03:30:56.792Z,18.10
2022-12-15T03:33:30.365Z,15.23
2022-12-15T03:36:03.335Z,17.27
2022-12-15T03:38:36.215Z,17.67
2022-12-15T03:41:08.837Z,19.70
2022-12-15T03:43:41.651Z,17.33
2022-12-15T03:46:14.167Z,18.95
2022-12-15T03:48:47.081Z,20.30
2022-12-15T03:51:24.447Z,21.10
2022-12-15T03:53:59.426Z,22.35
2022-12-15T03:56:32.774Z,18.50
2022-12-15T03:59:05.733Z,15.77
2022-12-15T04:01:38.368Z,17.67
2022-12-15T04:04:11.381Z,15.05
2022-12-15T04:06:43.950Z,22.70
2022-12-15T04:09:16.885Z,22.20
2022-12-15T04:11:49.462Z,16.20
2022-12-15T04:14:22.419Z,16.25
2022-12-15T04:16:55.089Z,14.63
2022-12-15T04:19:46.464Z,13.45
2022-12-15T04:22:19.060Z,12.95
2022-12-15T04:25:10.593Z,12.80
2022-12-15T04:28:02.037Z,12.88
2022-12-15T04:30:53.517Z,11.10
2022-12-15T04:33:44.767Z,11.27
2022-12-15T04:36:36.368Z,13.10
2022-12-15T04:39:27.478Z,12.52
2022-12-15T04:42:19.988Z,11.88
2022-12-15T04:45:17.004Z,11.73
2022-12-15T04:48:11.651Z,12.52
2022-12-15T04:51:02.872Z,10.55
2022-12-15T04:53:54.019Z,14.57
2022-12-15T04:56:45.176Z,13.00
2022-12-15T04:59:36.454Z,15.20
2022-12-15T05:02:28.171Z,13.00
2022-12-15T05:05:19.831Z,18.60
2022-12-15T05:08:11.118Z,20.33
2022-12-15T05:11:02.464Z,24.55
2022-12-15T05:13:53.687Z,22.77
2022-12-15T05:16:44.917Z,15.35
2022-12-15T05:19:36.158Z,15.30
2022-12-15T05:22:27.388Z,23.10
2022-12-15T05:25:18.535Z,24.37
2022-12-15T05:28:09.925Z,19.77
2022-12-15T05:31:01.473Z,22.35
2022-12-15T05:33:34.717Z,19.23
2022-12-15T05:36:07.715Z,16.42
2022-12-15T05:38:40.591Z,14.05
2022-12-15T05:41:13.074Z,13.93
2022-12-15T05:43:46.350Z,15.55
2022-12-15T05:46:20.059Z,14.57
2022-12-15T05:48:53.130Z,14.57
2022-12-15T05:51:25.863Z,13.27
2022-12-15T05:53:59.008Z,11.82
2022-12-15T05:56:31.564Z,11.40
2022-12-15T05:59:05.054Z,10.95
2022-12-15T06:01:37.690Z,13.00
2022-12-15T06:04:12.214Z,12.40
2022-12-15T06:06:44.813Z,12.75
2022-12-15T06:09:18.383Z,20.42
2022-12-15T06:11:50.905Z,22.08
2022-12-15T06:14:23.824Z,24.75
2022-12-15T06:16:56.616Z,22.25
2022-12-15T06:19:29.588Z,15.88
2022-12-15T06:22:02.117Z,17.17
2022-12-15T06:24:35.037Z,13.52
2022-12-15T06:27:07.591Z,15.20
2022-12-15T06:29:40.570Z,13.75
2022-12-15T06:32:13.155Z,13.68
2022-12-15T06:34:46.145Z,15.88
2022-12-15T06:37:18.656Z,14.70
2022-12-15T06:39:51.535Z,21.80
2022-12-15T06:42:24.007Z,23.17
2022-12-15T06:44:57.019Z,16.05
2022-12-15T06:47:29.727Z,13.57
2022-12-15T06:50:02.726Z,11.43
2022-12-15T06:52:35.232Z,13.63
2022-12-15T06:55:08.373Z,13.45
2022-12-15T06:57:40.918Z,18.80
2022-12-15T07:00:15.689Z,15.60
2022-12-15T07:02:50.113Z,15.38
2022-12-15T07:05:23.553Z,15.80
2022-12-15T07:07:56.176Z,14.18
2022-12-15T07:10:29.259Z,16.05
2022-12-15T07:13:01.892Z,13.45
2022-12-15T07:15:34.786Z,11.65
2022-12-15T07:18:07.984Z,15.05
2022-12-15T07:20:40.890Z,15.07
2022-12-15T07:23:13.331Z,19.10
2022-12-15T07:25:46.246Z,17.23
2022-12-15T07:28:24.125Z,18.98
2022-12-15T07:31:06.055Z,15.60
2022-12-15T07:33:38.665Z,17.98
2022-12-15T07:36:11.836Z,19.05
2022-12-15T07:38:51.109Z,18.77
2022-12-15T07:41:24.284Z,28.67
2022-12-15T07:43:57.265Z,21.55
2022-12-15T07:46:30.358Z,23.85
2022-12-15T07:49:03.029Z,24.60
2022-12-15T07:51:35.988Z,23.77
2022-12-15T07:54:11.745Z,22.25
2022-12-15T07:56:44.827Z,17.90
2022-12-15T07:59:24.041Z,14.55
2022-12-15T08:01:57.324Z,16.10
2022-12-15T08:04:32.846Z,16.77
2022-12-15T08:07:06.988Z,17.20
2022-12-15T08:09:39.950Z,17.10
2022-12-15T08:12:12.887Z,15.95
2022-12-15T08:14:45.427Z,18.13
2022-12-15T08:17:23.358Z,14.85
2022-12-15T08:19:58.914Z,17.27
2022-12-15T08:22:32.276Z,16.65
2022-12-15T08:25:04.922Z,14.50
2022-12-15T08:27:37.844Z,18.33
2022-12-15T08:30:10.713Z,16.48
2022-12-15T08:32:47.304Z,17.33
2022-12-15T08:35:54.409Z,17.17
2022-12-15T08:38:17.428Z,15.00
2022-12-15T08:40:50.040Z,16.27
2022-12-15T08:43:23.230Z,14.82
2022-12-15T08:45:55.793Z,14.13
2022-12-15T08:48:28.732Z,12.07
2022-12-15T08:51:01.828Z,13.93
2022-12-15T08:53:34.685Z,17.00
2022-12-15T08:56:08.570Z,15.13
2022-12-15T08:58:41.564Z,14.80
2022-12-15T09:01:22.889Z,12.93
2022-12-15T09:03:57.724Z,14.32
2022-12-15T09:06:32.596Z,13.48
2022-12-15T09:09:07.680Z,12.32
2022-12-15T09:11:40.274Z,13.77
2022-12-15T09:14:13.291Z,12.85
2022-12-15T09:16:45.956Z,13.23
2022-12-15T09:19:23.816Z,13.98
2022-12-15T09:21:56.471Z,11.80
2022-12-15T09:24:34.970Z,12.90
2022-12-15T09:27:08.015Z,13.65
2022-12-15T09:29:41.046Z,13.32
2022-12-15T09:32:14.607Z,12.07
2022-12-15T09:34:47.587Z,14.10
2022-12-15T09:37:22.865Z,14.25
2022-12-15T09:39:55.878Z,11.18
2022-12-15T09:42:29.548Z,14.18
2022-12-15T09:45:14.264Z,11.88
2022-12-15T09:47:53.548Z,13.10
2022-12-15T09:50:36.920Z,11.25
2022-12-15T09:53:45.499Z,14.30
2022-12-15T09:56:11.280Z,14.18
2022-12-15T09:58:54.159Z,12.52
2022-12-15T10:01:36.898Z,11.43
2022-12-15T10:04:28.332Z,22.25
2022-12-15T10:07:09.003Z,27.30
2022-12-15T10:09:41.566Z,16.55
2022-12-15T10:12:30.847Z,12.68
2022-12-15T10:15:22.094Z,14.20
2022-12-15T10:18:00.671Z,14.27
2022-12-15T10:20:33.455Z,9.90
2022-12-15T10:23:14.348Z,9.93
2022-12-15T10:25:51.406Z,9.90
2022-12-15T10:28:33.568Z,10.95
2022-12-15T10:31:25.625Z,8.43
2022-12-15T10:34:04.431Z,11.10
2022-12-15T10:36:37.093Z,12.70
2022-12-15T10:39:12.915Z,10.18
2022-12-15T10:41:47.326Z,9.95
2022-12-15T10:44:32.050Z,8.80
2022-12-15T10:49:37.480Z,9.70
2022-12-15T10:52:19.151Z,11.25
2022-12-15T10:54:52.852Z,11.32
2022-12-15T10:57:31.888Z,7.68
2022-12-15T11:00:13.788Z,12.00
2022-12-15T11:02:46.551Z,9.18
2022-12-15T11:05:21.146Z,10.05
2022-12-15T11:08:13.154Z,10.13
2022-12-15T11:11:15.549Z,12.07
2022-12-15T11:14:14.471Z,11.10
2022-12-15T11:16:58.014Z,10.55
2022-12-15T11:19:33.977Z,11.35
2022-12-15T11:22:12.929Z,11.38
2022-12-15T11:24:53.218Z,10.25
2022-12-15T11:27:32.341Z,8.70
2022-12-15T11:30:11.084Z,6.97
2022-12-15T11:32:49.192Z,11.27
2022-12-15T11:35:45.189Z,10.70
2022-12-15T11:38:25.845Z,9.90
2022-12-15T11:41:04.529Z,11.30
2022-12-15T11:43:50.475Z,9.43
2022-12-15T11:46:24.729Z,10.50
2022-12-15T11:49:00.871Z,8.57
2022-12-15T11:51:42.403Z,7.97
2022-12-15T11:54:24.691Z,10.40
2022-12-15T11:57:02.530Z,11.38
2022-12-15T11:59:35.604Z,12.85
2022-12-15T12:02:14.313Z,10.80
2022-12-15T12:05:06.019Z,10.55
2022-12-15T12:07:49.815Z,10.55
2022-12-15T12:10:43.100Z,12.77
2022-12-15T12:16:00.371Z,10.20
2022-12-15T12:18:46.164Z,11.10
2022-12-15T12:21:56.522Z,12.32
2022-12-15T12:24:50.807Z,10.15
2022-12-15T12:27:48.676Z,10.57
2022-12-15T12:30:25.285Z,11.98
2022-12-15T12:33:07.650Z,10.48
2022-12-15T12:35:46.997Z,10.18
2022-12-15T12:38:46.412Z,11.00
2022-12-15T12:41:36.003Z,9.32
2022-12-15T12:44:13.725Z,13.73
2022-12-15T12:46:49.232Z,12.27
2022-12-15T12:49:36.767Z,13.45
2022-12-15T12:52:19.042Z,35.28
2022-12-15T12:54:59.475Z,46.13
2022-12-15T12:57:58.288Z,22.73
2022-12-15T13:00:32.697Z,17.67
2022-12-15T13:03:16.732Z,17.50
2022-12-15T13:05:50.788Z,19.63
2022-12-15T13:08:28.299Z,17.25
2022-12-15T13:11:21.276Z,18.70
2022-12-15T13:13:53.978Z,21.40
2022-12-15T13:16:27.119Z,20.42
2022-12-15T13:19:04.879Z,20.83
2022-12-15T13:21:42.568Z,22.23
2022-12-15T13:24:32.743Z,21.65
2022-12-15T13:27:12.726Z,23.95
2022-12-15T13:29:59.202Z,24.08
2022-12-15T13:32:39.711Z,20.55
2022-12-15T13:35:12.662Z,18.70
2022-12-15T13:37:51.034Z,18.50
2022-12-15T13:40:24.426Z,17.77
2022-12-15T13:42:58.807Z,21.17
2022-12-15T13:45:50.298Z,22.70
2022-12-15T13:51:04.205Z,18.17
2022-12-15T13:53:39.442Z,19.50
2022-12-15T13:56:11.892Z,18.38
2022-12-15T14:01:48.220Z,17.40
2022-12-15T14:04:24.229Z,19.02
2022-12-15T14:07:03.178Z,21.45
2022-12-15T14:09:37.452Z,18.17
2022-12-15T14:12:13.816Z,17.00
2022-12-15T14:14:49.172Z,20.85
2022-12-15T14:17:22.392Z,17.20
2022-12-15T14:19:55.436Z,19.98
2022-12-15T14:22:30.129Z,21.58
2022-12-15T14:25:13.290Z,21.98
2022-12-15T14:27:50.738Z,21.55
2022-12-15T14:30:26.951Z,23.33
2022-12-15T14:33:04.447Z,22.88
2022-12-15T14:35:40.919Z,24.98
2022-12-15T14:38:16.616Z,26.13
2022-12-15T14:40:50.384Z,41.13
2022-12-15T14:43:30.169Z,40.83
2022-12-15T14:46:13.182Z,28.50
2022-12-15T14:48:51.571Z,29.55
2022-12-15T14:51:25.838Z,28.38
2022-12-15T14:53:58.435Z,46.20
2022-12-15T14:56:31.539Z,32.88
2022-12-15T14:59:06.071Z,26.90
2022-12-15T15:01:42.005Z,34.88
2022-12-15T15:03:14.141Z,17.50
2022-12-15T15:04:23.511Z,39.53
2022-12-15T15:06:57.369Z,44.92
2022-12-15T15:09:41.668Z,37.08
2022-12-15T15:12:21.837Z,34.75
2022-12-15T15:14:54.374Z,29.25
2022-12-15T15:17:38.053Z,51.92
2022-12-15T15:20:30.936Z,55.92
2022-12-15T15:23:12.511Z,51.50
2022-12-15T15:25:50.987Z,42.58
2022-12-15T15:28:26.851Z,35.03
2022-12-15T15:31:07.212Z,32.60
2022-12-15T15:33:40.562Z,40.27
2022-12-15T15:36:14.271Z,41.65
2022-12-15T15:38:47.314Z,34.55
2022-12-15T15:41:21.855Z,27.63
2022-12-15T15:43:54.771Z,24.75
2022-12-15T15:46:34.729Z,19.80
2022-12-15T15:49:09.156Z,20.38
2022-12-15T15:51:41.643Z,31.33
2022-12-15T15:54:15.731Z,26.55
2022-12-15T15:56:48.293Z,25.15
2022-12-15T15:59:21.517Z,27.27
2022-12-15T16:01:56.230Z,21.17
2022-12-15T16:04:33.675Z,22.23
2022-12-15T16:07:07.716Z,23.92
2022-12-15T16:09:40.832Z,26.27
2022-12-15T16:12:33.893Z,25.88
2022-12-15T16:15:13.543Z,22.60
2022-12-15T16:17:46.775Z,23.35
2022-12-15T16:20:21.553Z,24.42
2022-12-15T16:22:57.946Z,28.33
2022-12-15T16:25:41.208Z,28.20
2022-12-15T16:28:20.457Z,26.83
2022-12-15T16:30:53.826Z,25.50
2022-12-15T16:33:26.406Z,23.35
2022-12-15T16:35:59.690Z,27.73
2022-12-15T16:38:32.915Z,30.27
2022-12-15T16:41:07.146Z,28.08
2022-12-15T16:43:46.113Z,27.65
2022-12-15T16:46:20.913Z,26.92
2022-12-15T16:48:54.789Z,22.08
2022-12-15T16:51:37.074Z,25.65
2022-12-15T16:54:18.377Z,23.90
2022-12-15T16:59:35.399Z,30.70
2022-12-15T17:02:28.377Z,29.77
2022-12-15T17:05:01.333Z,27.35
2022-12-15T17:07:34.621Z,30.95
2022-12-15T17:10:07.403Z,31.13
2022-12-15T17:12:40.852Z,33.70
2022-12-15T17:15:24.981Z,29.05
2022-12-15T17:17:57.899Z,26.35
2022-12-15T17:20:31.333Z,28.20
2022-12-15T17:23:11.730Z,27.55
2022-12-15T17:26:19.516Z,33.45
2022-12-15T17:28:39.510Z,30.33
2022-12-15T17:31:18.896Z,33.33
2022-12-15T17:33:51.975Z,30.40
2022-12-15T17:36:27.014Z,27.83
2022-12-15T17:39:01.635Z,31.40
2022-12-15T17:41:58.889Z,29.25
2022-12-15T17:44:33.428Z,33.17
2022-12-15T17:47:07.928Z,27.08
2022-12-15T17:49:41.305Z,31.95
2022-12-15T17:52:21.841Z,33.97
2022-12-15T17:54:54.999Z,32.43
2022-12-15T17:57:27.623Z,34.38
2022-12-15T18:00:02.278Z,34.15
2022-12-15T18:02:40.866Z,34.05
2022-12-15T18:05:14.076Z,32.90
2022-12-15T18:07:51.917Z,42.15
2022-12-15T18:10:33.420Z,46.20
2022-12-15T18:13:23.660Z,38.15
2022-12-15T18:15:56.947Z,41.70
2022-12-15T18:18:29.516Z,44.28
2022-12-15T18:21:08.331Z,44.40
2022-12-15T18:23:40.894Z,42.72
2022-12-15T18:26:15.397Z,45.53
2022-12-15T18:28:49.959Z,39.15
2022-12-15T18:31:26.106Z,36.35
2022-12-15T18:34:04.473Z,34.88
2022-12-15T18:36:37.816Z,40.80
2022-12-15T18:39:18.494Z,42.47
2022-12-15T18:41:53.559Z,34.60
2022-12-15T18:44:27.265Z,33.90
2022-12-15T18:47:00.212Z,35.88
2022-12-15T18:49:32.728Z,35.13
2022-12-15T18:52:06.322Z,37.60
2022-12-15T18:54:39.026Z,43.90
2022-12-15T18:57:31.948Z,44.00
2022-12-15T19:00:13.914Z,43.45
2022-12-15T19:02:47.865Z,40.95
2022-12-15T19:05:34.143Z,40.53
2022-12-15T19:08:11.667Z,37.00
2022-12-15T19:10:49.171Z,39.45
2022-12-15T19:13:29.460Z,43.03
2022-12-15T19:16:03.270Z,37.33
2022-12-15T19:18:54.698Z,38.97
2022-12-15T19:21:50.504Z,36.30
2022-12-15T19:24:43.216Z,39.55
2022-12-15T19:27:16.796Z,37.20
2022-12-15T19:29:50.809Z,36.70
2022-12-15T19:32:23.495Z,34.45
2022-12-15T19:34:56.378Z,37.13
2022-12-15T19:37:31.157Z,46.88
2022-12-15T19:40:04.789Z,42.30
2022-12-15T19:42:41.814Z,37.15
2022-12-15T19:45:18.873Z,36.28
2022-12-15T19:47:51.761Z,39.15
2022-12-15T19:50:26.154Z,37.45
2022-12-15T19:53:00.779Z,35.10
2022-12-15T19:55:35.477Z,35.47
2022-12-15T19:58:27.548Z,33.28
2022-12-15T20:01:08.848Z,30.27
2022-12-15T20:03:42.378Z,29.58
2022-12-15T20:06:17.472Z,33.30
2022-12-15T20:08:51.766Z,32.45
2022-12-15T20:11:29.941Z,36.38
2022-12-15T20:14:03.070Z,43.15
2022-12-15T20:16:36.117Z,38.50
2022-12-15T20:19:09.109Z,44.95
2022-12-15T20:21:42.166Z,47.00
2022-12-15T20:24:16.532Z,44.88
2022-12-15T20:26:49.399Z,40.97
2022-12-15T20:29:32.391Z,47.75
2022-12-15T20:32:09.835Z,43.83
2022-12-15T20:34:42.455Z,43.28
2022-12-15T20:37:23.648Z,50.47
2022-12-15T20:39:59.603Z,48.72
2022-12-15T20:42:32.522Z,55.75
2022-12-15T20:45:05.403Z,51.58
2022-12-15T20:47:40.837Z,50.03
2022-12-15T20:50:36.686Z,54.95
2022-12-15T20:53:23.963Z,52.83
2022-12-15T20:55:56.895Z,56.13
2022-12-15T20:58:33.357Z,50.33
2022-12-15T21:01:18.673Z,50.95
2022-12-15T21:03:53.654Z,49.97
2022-12-15T21:06:27.905Z,51.03
2022-12-15T21:09:00.942Z,48.35
2022-12-15T21:11:33.904Z,49.60
2022-12-15T21:14:15.386Z,45.05
2022-12-15T21:16:47.914Z,47.38
2022-12-15T21:19:22.473Z,40.75
2022-12-15T21:21:55.982Z,43.03
2022-12-15T21:24:29.325Z,44.83
2022-12-15T21:27:01.960Z,43.45
2022-12-15T21:29:35.605Z,42.60
2022-12-15T21:32:08.208Z,43.17
2022-12-15T21:34:41.395Z,39.35
2022-12-15T21:37:28.304Z,42.28
2022-12-15T21:40:01.884Z,37.80
2022-12-15T21:42:35.818Z,38.90
2022-12-15T21:45:19.800Z,41.92
2022-12-15T21:48:11.792Z,35.67
2022-12-15T21:50:45.939Z,37.95
2022-12-15T21:53:18.698Z,39.45
2022-12-15T21:55:51.616Z,37.38
2022-12-15T21:58:27.800Z,39.25
2022-12-15T22:01:00.937Z,37.80
2022-12-15T22:03:34.117Z,34.67
2022-12-15T22:06:07.017Z,40.20
2022-12-15T22:08:39.641Z,36.63
2022-12-15T22:11:18.528Z,39.03
2022-12-15T22:13:52.390Z,35.72
2022-12-15T22:16:25.446Z,36.15
2022-12-15T22:18:58.719Z,33.53
2022-12-15T22:21:32.460Z,31.80
2022-12-15T22:24:05.271Z,36.15
2022-12-15T22:26:39.181Z,31.77
2022-12-15T22:29:19.515Z,33.33
2022-12-15T22:31:52.521Z,33.33
2022-12-15T22:34:27.883Z,30.42
2022-12-15T22:37:00.909Z,31.70
2022-12-15T22:39:34.091Z,33.15
2022-12-15T22:42:07.297Z,33.45
2022-12-15T22:44:40.784Z,30.30
2022-12-15T22:47:13.730Z,28.67
2022-12-15T22:49:46.415Z,29.75
2022-12-15T22:52:20.528Z,27.50
2022-12-15T22:54:58.175Z,25.58
2022-12-15T22:57:31.128Z,27.17
2022-12-15T23:00:07.663Z,25.00
2022-12-15T23:02:42.242Z,25.85
2022-12-15T23:05:17.279Z,24.27
2022-12-15T23:07:50.469Z,23.75
2022-12-15T23:10:42.974Z,25.60
2022-12-15T23:13:15.843Z,26.33
2022-12-15T23:16:07.037Z,23.05
2022-12-15T23:18:40.005Z,22.60
2022-12-15T23:21:12.644Z,23.42
2022-12-15T23:23:46.114Z,21.67
2022-12-15T23:26:19.409Z,20.23
2022-12-15T23:28:53.566Z,21.42
2022-12-15T23:31:27.800Z,20.63
2022-12-15T23:34:00.836Z,20.27
2022-12-15T23:36:33.432Z,22.58
2022-12-15T23:39:06.395Z,21.20
2022-12-15T23:41:38.982Z,20.30
2022-12-15T23:44:12.759Z,21.75
2022-12-15T23:46:47.017Z,21.08
2022-12-15T23:49:20.028Z,19.67
2022-12-15T23:51:52.531Z,18.00
2022-12-15T23:54:25.411Z,22.50
2022-12-15T23:56:58.017Z,22.85
2022-12-15T23:59:30.976Z,22.25
